Terminal Aerodrome Forecast
Issued by NWS Charleston, WV

Home | Current Version | Previous Version | Text Only | Print | Product List | Glossary On
Versions: 1 2 3 4 5 6 7 8 9 10 11 12 13 14 15 16 17 18 19 20 21 22 23
000
FTUS41 KRLX 211700
TAFPKB
TAF
KPKB 211739Z 2118/2218 23010G16KT P6SM FEW026 FEW070 SCT090
      TEMPO 2118/2120 VRB15G30KT 3SM TSRA BKN030CB
     FM212000 26013G24KT P6SM BKN045
     FM212300 28011G20KT P6SM SCT035
     FM220200 30008KT P6SM SCT035
     FM220300 30007KT P6SM BKN025
     FM221000 32005KT 5SM BR BKN035
     FM221200 31006KT P6SM BKN040=

USA.gov is the U.S. government's official web portal to all federal, state and local government web resources and services.